Time;durP1;ratioP1;P1;durP2;ratioP2;P2;SDS_P1;SDS_P2;PMS_P1;PMS_P2;Temp;Humidity;BMP_temperature;BMP_pressure;BME280_temperature;BME280_humidity;BME280_pressure;Samples;Min_cycle;Max_cycle;Signal;HPM_P1;HPM_P2
2021/05/10 00:00:14;;;;;;;7.18;4.60;;;11.70;57.70;;;;;;5035398;28;20524;-63
2021/05/10 00:02:41;;;;;;;6.25;4.90;;;11.70;57.80;;;;;;5035959;28;20512;-62
2021/05/10 00:05:07;;;;;;;5.40;4.38;;;11.60;58.00;;;;;;5032533;28;20030;-63
2021/05/10 00:07:33;;;;;;;6.72;5.00;;;11.60;58.20;;;;;;5026026;28;20387;-63
2021/05/10 00:09:59;;;;;;;7.55;4.82;;;11.60;58.10;;;;;;5035620;28;20030;-63
2021/05/10 00:12:25;;;;;;;6.25;4.63;;;11.50;58.20;;;;;;5035407;28;20105;-63
2021/05/10 00:14:51;;;;;;;6.28;4.90;;;11.40;58.10;;;;;;5033839;28;20104;-62
2021/05/10 00:17:17;;;;;;;7.10;4.85;;;11.40;58.30;;;;;;5035782;28;20018;-63
2021/05/10 00:19:42;;;;;;;7.32;4.80;;;11.30;58.50;;;;;;5033255;28;20051;-61
2021/05/10 00:22:08;;;;;;;6.05;4.70;;;11.30;58.70;;;;;;5027907;28;20134;-62
2021/05/10 00:24:34;;;;;;;6.45;5.13;;;11.20;59.00;;;;;;5032218;28;20028;-63
2021/05/10 00:27:00;;;;;;;6.72;5.38;;;11.10;59.10;;;;;;5031462;28;20025;-63
2021/05/10 00:29:25;;;;;;;7.25;5.57;;;11.10;59.40;;;;;;5035239;28;20022;-63
2021/05/10 00:31:51;;;;;;;8.43;6.30;;;11.00;60.40;;;;;;5030822;28;20033;-63
2021/05/10 00:34:17;;;;;;;8.60;6.05;;;11.00;60.10;;;;;;5035020;28;20547;-61
2021/05/10 00:36:42;;;;;;;7.03;5.20;;;11.10;60.40;;;;;;5035199;28;20061;-62
2021/05/10 00:39:08;;;;;;;7.88;5.85;;;11.00;60.40;;;;;;5034579;28;20029;-63
2021/05/10 00:41:34;;;;;;;6.78;5.18;;;11.00;60.40;;;;;;5035112;28;20021;-63
2021/05/10 00:44:00;;;;;;;8.27;5.63;;;10.90;60.80;;;;;;5034723;28;20032;-63
2021/05/10 00:46:26;;;;;;;6.43;5.30;;;10.90;61.30;;;;;;5034113;28;20029;-63
2021/05/10 00:48:52;;;;;;;8.50;5.72;;;10.90;61.60;;;;;;5034922;28;20029;-63
2021/05/10 00:51:18;;;;;;;6.80;5.80;;;10.90;61.70;;;;;;5034583;28;20037;-63
2021/05/10 00:53:43;;;;;;;6.88;5.65;;;10.90;61.80;;;;;;5034522;28;20042;-62
2021/05/10 00:56:10;;;;;;;8.55;6.47;;;10.80;62.00;;;;;;5030874;28;20103;-63
2021/05/10 00:58:37;;;;;;;8.75;5.95;;;10.80;62.20;;;;;;5034941;28;20028;-63
2021/05/10 01:01:02;;;;;;;8.63;6.07;;;10.80;62.40;;;;;;5032356;28;20033;-63
2021/05/10 01:03:29;;;;;;;8.98;6.00;;;10.80;62.80;;;;;;5034720;28;20492;-61
2021/05/10 01:05:55;;;;;;;9.18;6.03;;;10.80;63.20;;;;;;5034193;28;20119;-63
2021/05/10 01:08:21;;;;;;;7.75;6.20;;;10.80;63.50;;;;;;5027212;28;20114;-62
2021/05/10 01:10:46;;;;;;;9.50;7.82;;;10.80;63.60;;;;;;5033102;28;20028;-62
2021/05/10 01:13:13;;;;;;;9.13;7.70;;;10.80;63.80;;;;;;5034482;28;20462;-63
2021/05/10 01:15:40;;;;;;;9.23;6.82;;;10.80;64.00;;;;;;5034339;28;20469;-63
2021/05/10 01:18:06;;;;;;;9.48;6.65;;;10.90;64.30;;;;;;5034334;28;20381;-63
2021/05/10 01:20:34;;;;;;;9.18;6.97;;;10.80;64.50;;;;;;5034031;28;20025;-63
2021/05/10 01:23:00;;;;;;;8.85;6.25;;;10.90;64.70;;;;;;5026073;28;20029;-63
2021/05/10 01:25:30;;;;;;;7.90;5.85;;;10.90;64.80;;;;;;5033870;28;20033;-63
2021/05/10 01:27:58;;;;;;;7.75;6.30;;;10.90;65.00;;;;;;5034091;28;20108;-62
2021/05/10 01:30:24;;;;;;;8.52;6.53;;;10.80;64.90;;;;;;5031308;28;20462;-63
2021/05/10 01:32:52;;;;;;;8.10;6.53;;;10.80;65.20;;;;;;5034395;28;20496;-63
2021/05/10 01:35:25;;;;;;;8.48;6.55;;;10.80;65.30;;;;;;5029459;28;20030;-63
2021/05/10 01:37:51;;;;;;;8.23;6.57;;;10.80;65.40;;;;;;5030977;28;20036;-63
2021/05/10 01:40:17;;;;;;;10.18;6.43;;;10.80;65.40;;;;;;5028017;28;20103;-63
2021/05/10 01:42:43;;;;;;;8.77;6.85;;;10.80;65.50;;;;;;5033676;28;20049;-62
2021/05/10 01:45:10;;;;;;;7.95;7.15;;;10.70;65.50;;;;;;5032848;28;20029;-63
2021/05/10 01:47:35;;;;;;;10.02;7.00;;;10.70;65.50;;;;;;5034034;28;20028;-62
2021/05/10 01:50:18;;;;;;;8.68;7.10;;;10.70;65.80;;;;;;5031419;28;20025;-62
2021/05/10 01:52:48;;;;;;;9.00;6.93;;;10.70;66.00;;;;;;5031781;28;20457;-62
2021/05/10 01:55:15;;;;;;;10.85;7.68;;;10.60;66.20;;;;;;5018053;28;20050;-62
2021/05/10 01:57:48;;;;;;;12.98;8.73;;;10.60;66.40;;;;;;5033605;28;20036;-62
2021/05/10 02:00:17;;;;;;;12.07;8.57;;;10.60;66.40;;;;;;5027982;28;20034;-62
2021/05/10 02:02:43;;;;;;;12.85;9.55;;;10.60;66.50;;;;;;5033480;28;20025;-62
2021/05/10 02:05:12;;;;;;;14.43;9.55;;;10.60;66.70;;;;;;5032465;28;20083;-62
2021/05/10 02:07:46;;;;;;;13.38;10.38;;;10.60;66.70;;;;;;5032621;28;20470;-62
2021/05/10 02:10:22;;;;;;;14.38;11.18;;;10.50;66.80;;;;;;5028534;28;20025;-62
2021/05/10 02:13:10;;;;;;;15.65;11.27;;;10.50;66.70;;;;;;5033362;28;20025;-63
2021/05/10 02:15:42;;;;;;;15.98;10.23;;;10.50;67.20;;;;;;5024641;28;20038;-62
2021/05/10 02:18:09;;;;;;;15.50;10.93;;;10.50;67.00;;;;;;5031783;28;20061;-63
2021/05/10 02:20:35;;;;;;;15.77;10.77;;;10.50;67.00;;;;;;5032004;28;20059;-62
2021/05/10 02:23:04;;;;;;;13.60;10.90;;;10.50;67.00;;;;;;5027426;28;20103;-62
2021/05/10 02:25:33;;;;;;;14.80;10.90;;;10.50;67.00;;;;;;5033036;28;20013;-63
2021/05/10 02:27:59;;;;;;;15.27;10.25;;;10.50;67.10;;;;;;5033149;28;20485;-63
2021/05/10 02:30:29;;;;;;;16.27;9.57;;;10.50;67.20;;;;;;5028331;28;20025;-63
2021/05/10 02:32:56;;;;;;;12.90;9.45;;;10.50;67.50;;;;;;5023149;28;20489;-63
2021/05/10 02:35:22;;;;;;;13.18;9.63;;;10.50;67.50;;;;;;5031210;28;20040;-62
2021/05/10 02:37:49;;;;;;;12.00;8.90;;;10.50;67.50;;;;;;5030665;28;20037;-63
2021/05/10 02:40:16;;;;;;;11.20;9.23;;;10.50;67.60;;;;;;5029004;28;20529;-63
2021/05/10 02:42:42;;;;;;;16.88;11.52;;;10.50;67.80;;;;;;5033069;28;20477;-63
2021/05/10 02:45:09;;;;;;;14.48;9.77;;;10.60;68.10;;;;;;5027607;28;20041;-63
2021/05/10 02:47:36;;;;;;;14.85;10.73;;;10.60;68.00;;;;;;5032833;28;20096;-63
2021/05/10 02:50:05;;;;;;;15.55;11.70;;;10.70;68.20;;;;;;5032544;28;20599;-62
2021/05/10 02:52:31;;;;;;;13.02;9.80;;;10.70;68.20;;;;;;5032466;28;20025;-63
2021/05/10 02:54:56;;;;;;;14.32;11.15;;;10.80;68.40;;;;;;5031833;28;20505;-63
2021/05/10 02:57:22;;;;;;;11.77;8.82;;;10.80;68.30;;;;;;5032970;28;20048;-63
2021/05/10 02:59:48;;;;;;;11.00;7.97;;;10.90;68.50;;;;;;5032710;28;20048;-63
2021/05/10 03:02:13;;;;;;;11.82;9.90;;;10.90;68.60;;;;;;5032282;28;20032;-63
2021/05/10 03:04:39;;;;;;;12.40;9.82;;;11.00;68.50;;;;;;5032549;28;20026;-63
2021/05/10 03:07:04;;;;;;;11.73;9.00;;;11.10;68.30;;;;;;5032229;28;20430;-63
2021/05/10 03:09:32;;;;;;;12.02;8.07;;;11.10;68.40;;;;;;5026466;28;20112;-63
2021/05/10 03:11:58;;;;;;;10.23;8.25;;;11.30;68.50;;;;;;5032776;28;20473;-63
2021/05/10 03:14:24;;;;;;;11.20;7.75;;;11.40;68.80;;;;;;5031814;28;20018;-63
2021/05/10 03:16:50;;;;;;;9.27;6.75;;;11.50;69.00;;;;;;5028239;28;20040;-63
2021/05/10 03:19:16;;;;;;;8.50;6.93;;;11.60;69.20;;;;;;5024829;28;20042;-63
2021/05/10 03:21:42;;;;;;;10.88;7.07;;;11.80;69.20;;;;;;5020868;28;20041;-63
2021/05/10 03:24:09;;;;;;;9.50;7.03;;;11.90;69.00;;;;;;5032494;28;20448;-63
2021/05/10 03:26:39;;;;;;;9.02;7.80;;;12.10;69.10;;;;;;5032255;28;20416;-63
2021/05/10 03:29:05;;;;;;;10.27;8.25;;;12.30;69.00;;;;;;5032326;28;20049;-63
2021/05/10 03:31:32;;;;;;;10.10;8.13;;;12.50;68.90;;;;;;5030271;28;20021;-63
2021/05/10 03:33:59;;;;;;;10.15;8.57;;;12.70;68.70;;;;;;5032335;28;20029;-63
2021/05/10 03:36:25;;;;;;;11.73;9.02;;;13.00;68.80;;;;;;5032114;28;20025;-64
2021/05/10 03:38:51;;;;;;;11.45;8.65;;;13.30;69.00;;;;;;5027094;28;20171;-63
2021/05/10 03:41:17;;;;;;;11.10;8.63;;;13.60;68.70;;;;;;5031916;28;20160;-63
2021/05/10 03:43:42;;;;;;;11.98;8.70;;;13.90;68.80;;;;;;5030566;28;20026;-63
2021/05/10 03:46:08;;;;;;;11.18;9.82;;;14.30;68.60;;;;;;5021569;28;20437;-64
2021/05/10 03:48:34;;;;;;;12.07;10.35;;;14.70;68.20;;;;;;5026911;28;20027;-64
2021/05/10 03:50:59;;;;;;;18.10;13.02;;;15.20;67.10;;;;;;5030432;28;20025;-64
2021/05/10 03:53:25;;;;;;;12.70;11.25;;;15.80;65.50;;;;;;5031877;28;20041;-64
2021/05/10 03:55:51;;;;;;;13.30;10.70;;;16.40;64.50;;;;;;5024459;28;20037;-64
2021/05/10 03:58:18;;;;;;;14.13;11.40;;;17.10;63.30;;;;;;5027504;28;20041;-64
2021/05/10 04:00:43;;;;;;;13.80;12.07;;;18.10;61.30;;;;;;5020955;28;20049;-64
2021/05/10 04:03:13;;;;;;;15.77;12.48;;;19.10;58.90;;;;;;5026213;28;20021;-64
2021/05/10 04:08:43;;;;;;;14.02;11.60;;;21.20;54.50;;;;;;5032338;28;20060;-64
2021/05/10 04:13:36;;;;;;;11.23;9.48;;;23.00;50.60;;;;;;5033349;28;20033;-62
2021/05/10 04:16:05;;;;;;;13.85;10.90;;;23.80;49.20;;;;;;5023454;28;20057;-62
2021/05/10 04:18:31;;;;;;;14.87;12.17;;;24.50;47.70;;;;;;5031803;28;20452;-64
2021/05/10 04:20:57;;;;;;;13.68;11.50;;;25.20;46.80;;;;;;5024756;28;20317;-63
2021/05/10 04:23:23;;;;;;;10.43;9.32;;;25.90;45.90;;;;;;5030577;28;20026;-62
2021/05/10 04:25:51;;;;;;;9.35;8.32;;;26.40;44.70;;;;;;5032401;28;20088;-65
2021/05/10 04:28:17;;;;;;;8.93;8.02;;;26.90;43.80;;;;;;5033429;28;20410;-62
2021/05/10 04:30:44;;;;;;;9.25;7.93;;;27.30;43.30;;;;;;5032381;28;20057;-64
2021/05/10 04:33:10;;;;;;;8.35;7.25;;;27.70;42.50;;;;;;5034942;28;20558;-63
2021/05/10 04:35:36;;;;;;;7.70;6.18;;;28.20;42.00;;;;;;5029397;28;20108;-64
2021/05/10 04:38:08;;;;;;;7.00;6.10;;;28.60;41.40;;;;;;5029165;28;20029;-62
2021/05/10 04:40:34;;;;;;;8.77;6.40;;;29.00;40.80;;;;;;5035024;28;20036;-64
2021/05/10 04:43:00;;;;;;;7.82;5.95;;;29.30;40.30;;;;;;5034095;28;20025;-65
2021/05/10 04:45:26;;;;;;;6.18;5.07;;;29.60;39.70;;;;;;5022668;28;20034;-63
2021/05/10 04:47:51;;;;;;;6.75;5.88;;;29.90;39.30;;;;;;5035181;28;20049;-62
2021/05/10 04:50:18;;;;;;;8.38;5.20;;;30.10;38.80;;;;;;5034549;28;20038;-63
2021/05/10 04:52:43;;;;;;;6.53;5.75;;;30.30;38.50;;;;;;5033824;28;20026;-62
2021/05/10 04:55:11;;;;;;;6.78;5.78;;;30.50;38.30;;;;;;5034663;28;20053;-62
2021/05/10 04:57:37;;;;;;;4.93;4.07;;;30.70;37.70;;;;;;5034834;28;20084;-65
2021/05/10 05:00:08;;;;;;;5.53;4.70;;;30.80;37.50;;;;;;5029896;28;20053;-62
2021/05/10 05:02:34;;;;;;;5.60;4.47;;;31.00;37.20;;;;;;5034633;28;20032;-62
2021/05/10 05:05:00;;;;;;;4.85;4.13;;;31.10;37.00;;;;;;5034435;28;20018;-65
2021/05/10 05:07:25;;;;;;;5.68;4.57;;;31.10;36.80;;;;;;5034963;28;20075;-64
2021/05/10 05:09:51;;;;;;;6.25;4.60;;;31.10;36.60;;;;;;5033804;28;20025;-62
2021/05/10 05:12:17;;;;;;;5.00;4.50;;;30.90;36.60;;;;;;5034102;28;20079;-62
2021/05/10 05:14:43;;;;;;;5.57;4.80;;;30.90;36.70;;;;;;5034412;28;20029;-64
2021/05/10 05:17:09;;;;;;;6.47;4.55;;;30.90;36.50;;;;;;5034130;28;20034;-63
2021/05/10 05:19:34;;;;;;;4.72;4.22;;;30.90;36.20;;;;;;5033328;28;20032;-63
2021/05/10 05:22:00;;;;;;;4.75;4.13;;;30.80;35.60;;;;;;5032364;28;20026;-65
2021/05/10 05:24:26;;;;;;;5.05;4.18;;;30.60;35.50;;;;;;5034161;28;20100;-65
2021/05/10 05:26:51;;;;;;;5.10;4.45;;;30.10;35.50;;;;;;5033927;28;20500;-63
2021/05/10 05:29:21;;;;;;;6.25;4.57;;;29.20;35.90;;;;;;5034123;28;20018;-62
2021/05/10 05:31:47;;;;;;;5.32;4.65;;;28.20;36.70;;;;;;5030612;28;20030;-64
2021/05/10 05:34:13;;;;;;;6.20;5.00;;;27.00;37.50;;;;;;5033931;28;20500;-63
2021/05/10 05:36:38;;;;;;;6.68;4.47;;;25.90;38.40;;;;;;5033933;28;20030;-63
2021/05/10 05:39:07;;;;;;;5.47;4.70;;;24.90;39.50;;;;;;5032768;28;20501;-63
2021/05/10 05:41:33;;;;;;;8.30;4.85;;;24.00;40.70;;;;;;5033550;28;20021;-63
2021/05/10 05:43:59;;;;;;;5.28;4.63;;;23.20;41.60;;;;;;5032404;28;20367;-63
2021/05/10 05:46:45;;;;;;;6.03;4.72;;;22.60;42.60;;;;;;5033412;28;20108;-63
2021/05/10 05:49:11;;;;;;;6.45;5.03;;;22.00;43.20;;;;;;5033616;28;20113;-63
2021/05/10 05:51:37;;;;;;;7.63;5.43;;;21.40;43.90;;;;;;5032387;28;20071;-63
2021/05/10 05:54:06;;;;;;;6.13;5.30;;;21.00;44.60;;;;;;5033544;28;20042;-64
2021/05/10 05:56:32;;;;;;;6.35;5.25;;;20.70;45.10;;;;;;5032941;28;20079;-63
2021/05/10 05:58:58;;;;;;;6.88;5.50;;;20.40;45.80;;;;;;5033888;28;20029;-63
2021/05/10 06:01:25;;;;;;;5.78;4.93;;;20.20;46.30;;;;;;5033658;28;20033;-65
2021/05/10 06:03:53;;;;;;;5.72;4.80;;;20.00;46.70;;;;;;5030882;28;20039;-62
2021/05/10 06:06:19;;;;;;;6.60;5.40;;;19.80;47.10;;;;;;5027291;28;20112;-65
2021/05/10 06:08:44;;;;;;;6.47;5.05;;;19.60;47.50;;;;;;5033524;28;20441;-64
2021/05/10 06:11:10;;;;;;;6.75;5.30;;;19.50;47.80;;;;;;5023393;28;20373;-62
2021/05/10 06:13:36;;;;;;;6.80;5.25;;;19.30;48.30;;;;;;5033485;28;20018;-62
2021/05/10 06:16:03;;;;;;;6.15;5.38;;;19.20;48.70;;;;;;5033331;28;20433;-65
2021/05/10 06:18:29;;;;;;;6.32;5.50;;;19.10;48.90;;;;;;5032769;28;20029;-63
2021/05/10 06:20:55;;;;;;;8.88;6.60;;;19.00;49.00;;;;;;5020793;28;20056;-63
2021/05/10 06:23:20;;;;;;;7.40;6.28;;;18.90;49.40;;;;;;5031774;28;20470;-63
2021/05/10 06:25:46;;;;;;;7.13;5.32;;;18.70;49.70;;;;;;5033359;28;20017;-63
2021/05/10 06:28:12;;;;;;;6.88;5.53;;;18.60;49.80;;;;;;5032744;28;20033;-63
2021/05/10 06:30:37;;;;;;;7.45;6.13;;;18.60;49.90;;;;;;5028215;28;20021;-63
2021/05/10 06:33:03;;;;;;;7.43;5.95;;;18.50;50.00;;;;;;5015061;28;20028;-63
2021/05/10 06:35:29;;;;;;;8.88;5.82;;;18.40;50.60;;;;;;5028035;28;20021;-63
2021/05/10 06:37:54;;;;;;;7.53;6.10;;;18.30;50.80;;;;;;5029384;28;20033;-63
2021/05/10 06:40:20;;;;;;;6.13;5.53;;;18.30;51.10;;;;;;5032579;28;20025;-63
2021/05/10 06:42:46;;;;;;;7.97;5.40;;;18.30;51.10;;;;;;5031265;28;20026;-63
2021/05/10 06:45:12;;;;;;;6.28;5.32;;;18.20;50.70;;;;;;5016411;28;20036;-63
2021/05/10 06:47:39;;;;;;;8.23;5.63;;;18.30;50.50;;;;;;5032767;28;20374;-63
2021/05/10 06:50:06;;;;;;;6.35;5.20;;;18.20;50.70;;;;;;5032236;28;20025;-63
2021/05/10 06:52:33;;;;;;;5.22;4.25;;;18.20;50.70;;;;;;5030362;28;20030;-63
2021/05/10 06:54:58;;;;;;;7.35;5.07;;;18.20;49.90;;;;;;5030178;28;20133;-63
2021/05/10 06:57:24;;;;;;;7.10;4.75;;;18.20;49.60;;;;;;5030463;28;20172;-63
2021/05/10 06:59:50;;;;;;;7.30;3.88;;;18.20;49.70;;;;;;5032336;28;20499;-63
2021/05/10 07:02:16;;;;;;;3.90;3.47;;;18.20;49.20;;;;;;5031608;28;20013;-63
2021/05/10 07:04:41;;;;;;;5.32;3.42;;;18.20;48.20;;;;;;5032845;28;20416;-63
2021/05/10 07:07:07;;;;;;;4.80;3.45;;;18.20;47.20;;;;;;5016445;28;20112;-63
2021/05/10 07:09:33;;;;;;;4.25;3.17;;;18.20;46.50;;;;;;5015152;28;20052;-63
2021/05/10 07:11:58;;;;;;;4.60;3.00;;;18.10;45.50;;;;;;5032152;28;20108;-65
2021/05/10 07:14:24;;;;;;;5.25;3.88;;;18.10;45.40;;;;;;5032538;28;20030;-65
2021/05/10 07:16:50;;;;;;;5.72;3.60;;;18.10;45.40;;;;;;5030581;28;20065;-65
2021/05/10 07:19:15;;;;;;;3.97;3.28;;;18.10;45.50;;;;;;5032517;28;20033;-65
2021/05/10 07:21:41;;;;;;;4.97;3.63;;;18.10;45.00;;;;;;5031227;28;20036;-63
2021/05/10 07:24:07;;;;;;;5.47;3.33;;;18.10;45.00;;;;;;5031409;28;20413;-65
2021/05/10 07:26:33;;;;;;;3.67;3.03;;;18.10;44.60;;;;;;5014594;28;20087;-63
2021/05/10 07:29:00;;;;;;;5.35;3.65;;;18.10;44.40;;;;;;5032232;28;20034;-65
2021/05/10 07:31:26;;;;;;;5.57;4.10;;;18.10;44.00;;;;;;5026703;28;20049;-64
2021/05/10 07:33:52;;;;;;;8.23;4.80;;;18.10;44.00;;;;;;5027813;28;20083;-64
2021/05/10 07:36:17;;;;;;;11.70;4.80;;;18.00;43.80;;;;;;5024849;28;20492;-63
2021/05/10 07:38:43;;;;;;;6.32;4.10;;;18.00;43.60;;;;;;5032333;28;20100;-63
2021/05/10 07:41:09;;;;;;;8.35;3.88;;;18.00;42.80;;;;;;5031773;28;20033;-64
2021/05/10 07:43:34;;;;;;;5.25;2.95;;;18.00;42.50;;;;;;5018407;28;20120;-64
2021/05/10 07:46:00;;;;;;;4.82;3.00;;;18.00;41.90;;;;;;5030113;28;20473;-63
2021/05/10 07:48:26;;;;;;;3.83;2.80;;;18.00;41.10;;;;;;5035898;28;20045;-64
2021/05/10 07:50:51;;;;;;;6.93;2.80;;;18.00;41.20;;;;;;5032647;28;20022;-64
2021/05/10 07:53:17;;;;;;;3.95;2.60;;;18.00;41.00;;;;;;5035753;28;20026;-63
2021/05/10 07:55:43;;;;;;;5.65;2.83;;;18.00;41.00;;;;;;5035395;28;20092;-63
2021/05/10 07:58:09;;;;;;;3.58;2.85;;;18.00;41.10;;;;;;5036184;28;20497;-63
2021/05/10 08:00:37;;;;;;;3.78;2.50;;;17.90;40.80;;;;;;5034419;28;20599;-63
2021/05/10 08:03:07;;;;;;;6.82;3.20;;;17.90;40.80;;;;;;5028942;28;20477;-64
2021/05/10 08:05:38;;;;;;;4.22;3.13;;;17.90;41.00;;;;;;5014777;28;20604;-63
2021/05/10 08:08:04;;;;;;;6.32;2.90;;;17.90;41.40;;;;;;5035556;28;20537;-63
2021/05/10 08:10:30;;;;;;;3.90;2.85;;;17.80;41.50;;;;;;5022809;28;20022;-63
2021/05/10 08:12:56;;;;;;;4.40;2.72;;;17.80;41.40;;;;;;5035620;28;20426;-63
2021/05/10 08:15:22;;;;;;;4.53;3.30;;;17.80;41.50;;;;;;5035508;28;20370;-63
2021/05/10 08:17:48;;;;;;;4.55;2.85;;;17.80;41.60;;;;;;5035612;28;20021;-64
2021/05/10 08:20:14;;;;;;;5.13;2.78;;;17.80;42.10;;;;;;5035128;28;20036;-63
2021/05/10 08:22:40;;;;;;;3.83;3.05;;;17.70;41.90;;;;;;5035737;28;20026;-63
2021/05/10 08:25:06;;;;;;;4.10;2.92;;;17.70;41.70;;;;;;5033964;28;20036;-64
2021/05/10 08:27:35;;;;;;;3.42;2.80;;;17.70;41.50;;;;;;5033071;28;20025;-63
2021/05/10 08:30:06;;;;;;;2.60;2.40;;;17.60;41.60;;;;;;5035548;28;20465;-64
2021/05/10 08:32:32;;;;;;;5.15;2.70;;;17.60;41.10;;;;;;5023415;28;20025;-63
2021/05/10 08:34:58;;;;;;;3.28;2.95;;;17.60;40.90;;;;;;5032198;28;20044;-63
2021/05/10 08:37:24;;;;;;;4.10;2.58;;;17.50;40.80;;;;;;5034886;28;20053;-63
2021/05/10 08:39:50;;;;;;;4.00;3.00;;;17.50;40.70;;;;;;5035407;28;20377;-63
2021/05/10 08:42:18;;;;;;;4.13;2.45;;;17.40;40.50;;;;;;5034892;28;20030;-63
2021/05/10 08:44:44;;;;;;;3.72;2.60;;;17.40;40.70;;;;;;5034150;28;20378;-63
2021/05/10 08:47:10;;;;;;;4.20;2.75;;;17.30;40.80;;;;;;5031662;28;20034;-64
2021/05/10 08:49:36;;;;;;;4.43;2.88;;;17.30;40.60;;;;;;5034926;28;20014;-64
2021/05/10 08:52:02;;;;;;;3.67;2.70;;;17.30;40.80;;;;;;5034852;28;20026;-64
2021/05/10 08:54:29;;;;;;;2.90;2.42;;;17.20;40.50;;;;;;5034286;28;20592;-63
2021/05/10 08:56:56;;;;;;;2.70;2.28;;;17.20;40.40;;;;;;5034638;28;20029;-63
2021/05/10 08:59:23;;;;;;;2.63;2.40;;;17.20;40.20;;;;;;5021830;28;20035;-63
2021/05/10 09:01:59;;;;;;;4.15;2.50;;;17.10;40.40;;;;;;5034955;28;20116;-63
2021/05/10 09:04:33;;;;;;;2.25;2.05;;;17.10;40.50;;;;;;5026200;28;20026;-63
2021/05/10 09:07:17;;;;;;;2.47;2.20;;;17.00;40.30;;;;;;5029191;28;20079;-63
2021/05/10 09:10:10;;;;;;;2.25;2.05;;;17.00;40.40;;;;;;5034447;28;20021;-63
2021/05/10 09:12:55;;;;;;;2.95;2.40;;;17.00;40.70;;;;;;5018313;28;20044;-63
2021/05/10 09:15:28;;;;;;;4.22;2.30;;;16.90;40.60;;;;;;5034143;28;20155;-63
2021/05/10 09:17:57;;;;;;;2.72;2.33;;;16.90;40.60;;;;;;5034239;28;20033;-63
2021/05/10 09:20:28;;;;;;;2.92;2.42;;;16.90;41.00;;;;;;5033424;28;20029;-64
2021/05/10 09:22:55;;;;;;;;;;;16.90;40.90;;;;;;5034802;28;20035;-64
2021/05/10 09:25:29;;;;;;;2.45;2.00;;;16.80;40.80;;;;;;5033741;28;20010;-64
2021/05/10 09:28:13;;;;;;;2.22;2.00;;;16.80;41.20;;;;;;5023415;28;20025;-63
2021/05/10 09:30:41;;;;;;;2.03;1.92;;;16.80;40.90;;;;;;5031319;28;20091;-63
2021/05/10 09:33:21;;;;;;;2.00;1.90;;;16.80;41.10;;;;;;5023962;28;20036;-64
2021/05/10 09:35:47;;;;;;;2.20;2.00;;;16.70;41.10;;;;;;5030899;28;20032;-63
2021/05/10 09:38:13;;;;;;;2.30;2.10;;;16.70;41.20;;;;;;5020146;28;20462;-63
2021/05/10 09:40:46;;;;;;;2.40;2.20;;;16.70;41.50;;;;;;5030589;28;20036;-63
2021/05/10 09:43:14;;;;;;;2.10;1.92;;;16.70;41.30;;;;;;5026216;28;20026;-63
2021/05/10 09:45:46;;;;;;;2.00;1.90;;;16.60;40.80;;;;;;5028553;28;20084;-63
2021/05/10 09:48:18;;;;;;;1.80;1.70;;;16.70;41.30;;;;;;5033071;28;20040;-64
2021/05/10 09:50:58;;;;;;;2.50;2.20;;;16.60;41.20;;;;;;5027515;28;20432;-63
2021/05/10 09:53:44;;;;;;;2.00;1.80;;;16.60;41.30;;;;;;5028200;28;20038;-63
2021/05/10 09:56:19;;;;;;;2.00;1.90;;;16.60;41.10;;;;;;5033616;28;20038;-63
2021/05/10 09:58:49;;;;;;;4.72;2.55;;;16.60;41.10;;;;;;5033608;28;20034;-64
2021/05/10 10:01:15;;;;;;;2.60;2.10;;;16.60;41.50;;;;;;5032178;28;20029;-63
2021/05/10 10:03:46;;;;;;;3.55;2.45;;;16.60;41.50;;;;;;5025110;28;20033;-63
2021/05/10 10:06:13;;;;;;;2.63;2.42;;;16.60;41.40;;;;;;5026323;28;20033;-62
2021/05/10 10:08:41;;;;;;;3.17;2.55;;;16.60;41.40;;;;;;5033478;28;20385;-63
2021/05/10 10:11:10;;;;;;;3.40;2.70;;;16.60;41.60;;;;;;5033113;28;20029;-63
2021/05/10 10:13:36;;;;;;;4.05;2.63;;;16.60;42.30;;;;;;5032778;28;20018;-64
2021/05/10 10:16:04;;;;;;;2.28;2.05;;;16.60;42.10;;;;;;5033376;28;20447;-63
2021/05/10 10:18:30;;;;;;;3.40;3.05;;;16.60;41.40;;;;;;5033192;28;20026;-64
2021/05/10 10:20:59;;;;;;;2.58;2.38;;;16.60;41.50;;;;;;5033482;28;20469;-63
2021/05/10 10:23:27;;;;;;;3.05;2.40;;;16.60;41.50;;;;;;5033268;28;20547;-63
2021/05/10 10:25:58;;;;;;;3.85;2.30;;;16.60;41.60;;;;;;5033350;28;20029;-64
2021/05/10 10:28:26;;;;;;;2.55;2.08;;;16.60;42.10;;;;;;5033811;28;20465;-63
2021/05/10 10:30:56;;;;;;;2.53;2.22;;;16.60;41.80;;;;;;5029406;28;20026;-64
2021/05/10 10:33:33;;;;;;;2.57;1.87;;;16.60;41.20;;;;;;5027446;28;20101;-64
2021/05/10 10:36:00;;;;;;;2.20;1.77;;;16.60;41.50;;;;;;5031747;28;20477;-63
2021/05/10 10:38:35;;;;;;;2.20;2.00;;;16.60;41.40;;;;;;5032997;28;20018;-63
2021/05/10 10:41:20;;;;;;;1.95;1.80;;;16.60;41.20;;;;;;5032607;28;20061;-63
2021/05/10 10:43:47;;;;;;;2.10;2.00;;;16.60;41.60;;;;;;5032776;28;20067;-64
2021/05/10 10:46:29;;;;;;;1.83;1.73;;;16.60;41.30;;;;;;5033098;28;20535;-63
2021/05/10 10:48:57;;;;;;;1.77;1.67;;;16.60;41.30;;;;;;5029210;28;20432;-63
2021/05/10 10:51:25;;;;;;;2.60;2.15;;;16.60;40.80;;;;;;5031422;28;20025;-61
2021/05/10 10:53:55;;;;;;;2.25;2.05;;;16.60;40.70;;;;;;5032833;28;20037;-60
2021/05/10 10:56:47;;;;;;;2.60;2.15;;;16.60;40.70;;;;;;5028815;28;20057;-60
2021/05/10 10:59:24;;;;;;;2.47;2.25;;;16.60;40.40;;;;;;5032917;28;20033;-60
2021/05/10 11:01:49;;;;;;;2.00;1.90;;;16.60;39.90;;;;;;5032569;28;20030;-61
2021/05/10 11:04:29;;;;;;;2.20;2.00;;;16.60;40.50;;;;;;5025203;28;20043;-60
2021/05/10 11:06:56;;;;;;;1.90;1.80;;;16.60;40.70;;;;;;5032414;28;20072;-60
2021/05/10 11:09:47;;;;;;;2.38;1.85;;;16.60;40.90;;;;;;5032480;28;20029;-60
2021/05/10 11:12:51;;;;;;;2.25;2.05;;;16.60;40.80;;;;;;5032398;28;20036;-60
2021/05/10 11:15:35;;;;;;;2.05;1.90;;;16.60;41.00;;;;;;5029618;28;20478;-60
2021/05/10 11:18:02;;;;;;;2.20;2.00;;;16.60;40.60;;;;;;5034478;28;20064;-60
2021/05/10 11:20:46;;;;;;;2.22;1.95;;;16.60;40.80;;;;;;5033885;28;20029;-60
2021/05/10 11:23:24;;;;;;;4.03;2.65;;;16.70;40.60;;;;;;5033843;28;20535;-60
2021/05/10 11:26:01;;;;;;;2.05;1.90;;;16.70;40.20;;;;;;5033642;28;20030;-60
2021/05/10 11:28:27;;;;;;;2.30;2.03;;;16.70;40.10;;;;;;5033744;28;20026;-59
2021/05/10 11:30:58;;;;;;;2.38;1.88;;;16.60;40.00;;;;;;5030797;28;20053;-60
2021/05/10 11:33:55;;;;;;;3.25;2.95;;;16.70;40.20;;;;;;5029427;28;20026;-60
2021/05/10 11:36:24;;;;;;;2.78;2.50;;;16.70;40.50;;;;;;5032509;28;20033;-60
2021/05/10 11:38:55;;;;;;;2.05;1.95;;;16.70;40.60;;;;;;5018455;28;20123;-60
2021/05/10 11:41:35;;;;;;;1.77;1.67;;;16.70;40.50;;;;;;5036205;28;20035;-60
2021/05/10 11:44:03;;;;;;;2.00;1.90;;;16.70;40.50;;;;;;5036035;28;20025;-60
2021/05/10 11:46:35;;;;;;;2.05;1.85;;;16.70;40.50;;;;;;5033794;28;20470;-60
2021/05/10 11:49:02;;;;;;;2.45;2.22;;;16.70;40.70;;;;;;5035804;28;20127;-58
2021/05/10 11:51:27;;;;;;;2.55;2.35;;;16.70;40.80;;;;;;5034436;28;20535;-60
2021/05/10 11:54:02;;;;;;;3.10;2.42;;;16.70;41.00;;;;;;5035598;28;20041;-60
2021/05/10 11:56:30;;;;;;;2.35;2.15;;;16.70;40.80;;;;;;5035423;28;20031;-60
2021/05/10 12:01:35;;;;;;;2.20;2.00;;;16.80;41.00;;;;;;5034995;28;20029;-60
2021/05/10 12:04:19;;;;;;;2.33;2.13;;;16.80;40.90;;;;;;5029623;28;20112;-60
2021/05/10 12:06:45;;;;;;;2.50;2.20;;;16.80;40.10;;;;;;5035432;28;20087;-60
2021/05/10 12:09:40;;;;;;;2.72;2.00;;;16.80;40.30;;;;;;5036100;28;20021;-60
2021/05/10 12:12:17;;;;;;;1.65;1.55;;;16.80;40.60;;;;;;5034604;28;20021;-60
2021/05/10 12:14:46;;;;;;;2.40;2.20;;;16.80;40.80;;;;;;5031127;28;20065;-60
2021/05/10 12:17:14;;;;;;;5.00;2.60;;;16.80;40.60;;;;;;5035486;28;20036;-60
2021/05/10 12:20:04;;;;;;;2.20;2.00;;;16.80;40.70;;;;;;5035604;28;20053;-60
2021/05/10 12:22:42;;;;;;;2.00;1.90;;;16.80;40.80;;;;;;5035475;28;20021;-60
2021/05/10 12:25:12;;;;;;;1.73;1.63;;;16.80;40.30;;;;;;5018199;28;20109;-60
2021/05/10 12:28:14;;;;;;;1.75;1.65;;;16.90;40.10;;;;;;5034567;28;20033;-60
2021/05/10 12:30:47;;;;;;;2.22;2.03;;;16.90;40.00;;;;;;5034239;28;20025;-60
2021/05/10 12:33:20;;;;;;;4.82;2.47;;;16.90;40.10;;;;;;5032079;28;20548;-60
2021/05/10 12:35:50;;;;;;;2.30;2.10;;;16.90;40.90;;;;;;5035534;28;20030;-59
2021/05/10 12:38:36;;;;;;;3.13;2.20;;;16.90;41.40;;;;;;5035155;28;20029;-60
2021/05/10 12:41:05;;;;;;;1.92;1.73;;;16.90;41.90;;;;;;5034888;28;20385;-60
2021/05/10 12:43:33;;;;;;;3.28;2.03;;;16.90;40.90;;;;;;5032672;28;20033;-60
2021/05/10 12:46:00;;;;;;;3.50;2.20;;;16.90;40.70;;;;;;5024421;28;20030;-60
2021/05/10 12:48:26;;;;;;;2.13;1.90;;;16.90;40.60;;;;;;5027249;28;20049;-60
2021/05/10 12:51:04;;;;;;;2.47;1.88;;;16.90;41.00;;;;;;5035216;28;20488;-60
2021/05/10 12:53:41;;;;;;;2.20;2.00;;;16.90;41.80;;;;;;5036256;28;20021;-60
2021/05/10 12:56:10;;;;;;;2.28;2.08;;;16.90;41.20;;;;;;5034440;28;20044;-60
2021/05/10 12:58:38;;;;;;;2.22;2.03;;;16.90;41.40;;;;;;5034711;28;20032;-60
2021/05/10 13:01:23;;;;;;;2.85;2.15;;;16.90;41.60;;;;;;5034402;28;20029;-59